Flight Track Log - Related Links

Times and Time Zones

All times are in EDT time to prevent confusion due to time zone crossing. See the ASQ5327 flight status page for this flight to view local times or setup timezone preferences in your user account.

Time Position Orientation Groundspeed Altitude Reporting Facility
EDT Latitude Longitude Course Direction KTS MPH feet Rate Location/Type
Tue 03:28:48 PM 35.0167 -89.9667 168° South 171 197 1,200  Level KMEM
Tue 03:29:56 PM 34.9500 -89.9500 168° South 244 281 2,900 2,273 Climbing KMEM
Tue 03:31:00 PM 34.9333 -89.8667 104° East 264 304 6,200 2,952 Climbing KMEM
Tue 03:32:00 PM 34.9500 -89.7833 76° East 288 331 9,000 2,093 Climbing KMEM
Tue 03:33:09 PM 35.0331 -89.7536 16° North 311 358 10,700 1,442 Climbing Memphis Center
Tue 03:34:09 PM 35.1311 -89.7578 358° North 329 379 12,100 1,700 Climbing Memphis Center
Tue 03:35:09 PM 35.2353 -89.7647 357° North 356 410 14,100 2,050 Climbing Memphis Center
Tue 03:36:09 PM 35.3356 -89.7717 357° North 369 425 16,200 2,000 Climbing Memphis Center
Tue 03:37:09 PM 35.4378 -89.7811 356° North 364 419 18,100 1,800 Climbing Memphis Center
Tue 03:38:09 PM 35.5381 -89.7906 356° North 364 419 19,800 1,450 Climbing Memphis Center
Tue 03:39:09 PM 35.6464 -89.8028 355° North 364 419 21,000 600 Climbing Memphis Center
Tue 03:40:09 PM 35.7486 -89.8097 357° North 364 419 21,000  Level Memphis Center
Tue 03:41:09 PM 35.8528 -89.7858 11° North 369 425 21,000  Level Memphis Center
Tue 03:42:09 PM 35.9550 -89.7594 12° North 369 425 21,000  Level Memphis Center
Tue 03:43:09 PM 36.0569 -89.7356 11° North 369 425 21,000  Level Memphis Center
Tue 03:44:09 PM 36.1589 -89.7117 11° North 369 425 21,000  Level Memphis Center
Tue 03:45:09 PM 36.2589 -89.6878 11° North 369 425 21,000  Level Memphis Center
Tue 03:46:09 PM 36.3506 -89.6664 11° North 369 425 21,000  Level Memphis Center
Tue 03:47:09 PM 36.4525 -89.6422 11° North 369 425 21,000  Level Memphis Center
Tue 03:48:09 PM 36.5544 -89.6233 North 369 425 21,000  Level Memphis Center
Tue 03:49:09 PM 36.6567 -89.6172 North 369 425 21,000  Level Memphis Center
Tue 03:50:09 PM 36.7586 -89.6086 North 364 419 21,000  Level Memphis Center
Tue 03:51:09 PM 36.8628 -89.6022 North 364 419 21,000  Level Memphis Center
Tue 03:53:02 PM 37.0458 -89.5853 North 369 425 21,000  Level Kansas City Center
Tue 03:54:04 PM 37.1692 -89.5778 North 368 423 21,000  Level Kansas City Center
Tue 03:55:06 PM 37.2694 -89.5939 353° North 368 423 21,000  Level Kansas City Center
Tue 03:56:08 PM 37.3628 -89.6447 337° Northwest 366 421 21,000  Level Kansas City Center
Tue 03:57:10 PM 37.4550 -89.6975 336° Northwest 365 420 21,000  Level Kansas City Center
Tue 03:58:12 PM 37.5486 -89.7489 336° Northwest 366 421 21,000  Level Kansas City Center
Tue 03:59:15 PM 37.6433 -89.7997 337° Northwest 365 420 21,000  Level Kansas City Center
Tue 04:00:17 PM 37.7361 -89.8525 336° Northwest 365 420 21,000 -48 Level Kansas City Center
Tue 04:01:19 PM 37.8489 -89.9122 337° Northwest 366 421 20,900 -1,113 Descending Kansas City Center
Tue 04:02:21 PM 37.9522 -89.9686 337° Northwest 374 430 18,700 -1,935 Descending Kansas City Center
Tue 04:03:23 PM 38.0469 -90.0206 337° Northwest 371 427 16,900 -1,306 Descending Kansas City Center
Tue 04:04:25 PM 38.1431 -90.0764 335° Northwest 355 409 16,000 -435 Descending Kansas City Center
Tue 04:05:27 PM 38.2303 -90.1247 336° Northwest 346 398 16,000 -774 Level Kansas City Center
Tue 04:06:29 PM 38.3219 -90.1758 336° Northwest 355 409 14,400 -1,500 Descending Kansas City Center
Tue 04:07:31 PM 38.4089 -90.2258 336° Northwest 373 429 12,900 -1,680 Descending Kansas City Center
Tue 04:08:34 PM 38.5247 -90.2906 336° Northwest 378 435 10,900 -1,597 Descending Kansas City Center
Tue 04:09:35 PM 38.6086 -90.3381 336° Northwest 339 390 9,600 -1,512 Descending Kansas City Center
Tue 04:10:37 PM 38.6739 -90.3892 329° Northwest 305 351 7,800 -2,177 Descending Kansas City Center
Tue 04:11:39 PM 38.7133 -90.4792 299° West 284 327 5,100 -2,274 Descending Kansas City Center
Tue 04:12:41 PM 38.7486 -90.5611 299° West 272 313 3,100 -1,210 Descending Kansas City Center
Tue 04:13:43 PM 38.8064 -90.5622 359° North 261 300 2,600 -435 Descending Kansas City Center
Tue 04:14:45 PM 38.7994 -90.4925 97° East 220 253 2,200 -677 Descending Kansas City Center
Tue 04:15:47 PM 38.7744 -90.4397 121° Southeast 164 189 1,200 -774 Descending Kansas City Center
Tue 04:16:49 PM 38.7592 -90.4069 121° Southeast 147 169 600 -581 Descending Kansas City Center

Login

Don't have an account? Register now (free) for customized features, flight alerts, and more!